Arlington, VA

12:58 PM EST on November 24, 2014 (GMT -0500)
Waverly Hills | Change Station
CLOSE
Current Station
Personal Weather Station
Location: Arlington, VA
Elevation: 325 ft
Nearby Weather Stations

Elev 325 ft 38.89 °N, 77.12 °W | Updated 8 minutes ago

Overcast
Overcast
67.5 °F
Feels Like 67.5 °F
N
5.8
Wind Variable Wind from SW

Today
High -- | Low -- °F
--% Chance of Precip.
Yesterday
High -- | Low -- °F
Precip. -- in
7:00 AM 4:49 PM
Waxing Crescent, 6% visible
Pressure 29.65 in
Visibility 10.0 miles
Clouds Mostly Cloudy 3900 ft
Dew Point 57 °F
Humidity 69%
Rainfall 0.20 in
Snow Depth Not available.
UV 2 out of 12
Pollen .10 out of 12
Air Quality Not available.
Flu Activity Not available.
METAR KDCA 241752Z 19018G25KT 10SM BKN039 22/12 A2965 RMK AO2 PK WND 20027/1729 SLP039 T02170122 10217 20161 58018

More Conditions Fewer Conditions

Pressure 29.65 in
Visibility 10.0 miles
Clouds Mostly Cloudy 3900 ft
Dew Point 57 °F
Humidity 69%
Rainfall 0.20 in
Snow Depth Not available.
UV 2 out of 12
Pollen .10 out of 12
Air Quality Not available.
Flu Activity Not available.
METAR KDCA 241752Z 19018G25KT 10SM BKN039 22/12 A2965 RMK AO2 PK WND 20027/1729 SLP039 T02170122 10217 20161 58018

More Conditions Fewer Conditions

10-Day Weather Forecast

Almanac

Astronomy

Nov. 24, 2014 Rise Set
Actual Time
Civil Twilight
Nautical Twilight
Astronomical Twilight
Moon
Length of Visible Light
Length of Day
Tomorrow will be .
, % of the Moon is Illuminated

Today's Extremes

State Highs State Lows

Community

WunderPhotos

Upload Photos

1,773,379 photos uploaded!

WunderBlogs® & News

Nearby

Air Quality

  Air Quality AQ Index Pollutant
Not available.

Snow Depth

Station Depth Elevation

Earthquake Activity

City Distance Mag. Time & Date
Minimum magnitude displayed is 2.5.

Coastal Water Temperatures

Place Temperature

Nearby Weather Stations